Colchester, Canada
Current Conditions -  °F | °C
As of 10:34 PM on Friday 28 Nov 2014 (Local Time) from KONZ Reporting Station
Overcast Overcast  
Wind Chill: 22°   Ceiling: 7500
Heat Index: 32°   Visibility: 10mi
Dew Point: 25°   Wind: 15mph
Humidity: 75%   Direction: 170°S
Pressure: 30.1"   Gusts: NA
Location:  41.98°N, 82.93°W
Report Text: KONZ 290334Z AUTO 17013KT 10SM OVC075 00/M04 A3010 RMK AO2
Loading
Personal Weather Stations






























Interactive Weather Map New forecast layout! Learn more

10-Day Weather Forecast

Advertisements
Track Severe Weather on mobile